createdAt,value
2017-09-09T00:00:48.585Z,0.00
2017-09-09T00:01:48.606Z,0.00
2017-09-09T00:02:48.631Z,0.00
2017-09-09T00:03:48.657Z,0.00
2017-09-09T00:04:48.679Z,0.00
2017-09-09T00:05:48.702Z,0.00
2017-09-09T00:06:48.729Z,0.00
2017-09-09T00:07:48.754Z,0.00
2017-09-09T00:08:48.777Z,0.00
2017-09-09T00:09:48.799Z,0.00
2017-09-09T00:10:48.826Z,0.00
2017-09-09T00:11:48.848Z,0.00
2017-09-09T00:12:48.874Z,0.00
2017-09-09T00:13:48.895Z,0.00
2017-09-09T00:14:48.920Z,0.00
2017-09-09T00:15:48.946Z,0.00
2017-09-09T00:16:48.970Z,0.00
2017-09-09T00:17:48.993Z,0.00
2017-09-09T00:18:49.017Z,0.00
2017-09-09T00:19:49.043Z,0.00
2017-09-09T00:20:49.064Z,0.00
2017-09-09T00:21:49.089Z,0.00
2017-09-09T00:22:49.115Z,0.00
2017-09-09T00:23:49.140Z,0.00
2017-09-09T00:24:49.164Z,0.00
2017-09-09T00:25:49.185Z,0.00
2017-09-09T00:26:49.209Z,0.00
2017-09-09T00:27:49.239Z,0.00
2017-09-09T00:28:49.262Z,0.00
2017-09-09T00:29:49.284Z,0.00
2017-09-09T00:30:49.306Z,0.00
2017-09-09T00:31:49.329Z,0.00
2017-09-09T00:32:49.355Z,0.00
2017-09-09T00:33:49.385Z,0.00
2017-09-09T00:34:49.403Z,0.00
2017-09-09T00:35:49.426Z,0.00
2017-09-09T00:36:49.451Z,0.00
2017-09-09T00:37:49.474Z,0.00
2017-09-09T00:38:49.499Z,0.00
2017-09-09T00:39:49.521Z,0.00
2017-09-09T00:40:49.548Z,0.00
2017-09-09T00:41:49.569Z,0.00
2017-09-09T00:42:49.597Z,0.00
2017-09-09T00:43:49.617Z,0.00
2017-09-09T00:44:49.643Z,0.00
2017-09-09T00:45:49.665Z,0.00
2017-09-09T00:46:49.691Z,0.00
2017-09-09T00:47:49.719Z,0.00
2017-09-09T00:48:49.737Z,0.00
2017-09-09T00:49:49.764Z,0.00
2017-09-09T00:50:49.786Z,0.00
2017-09-09T00:51:49.808Z,0.00
2017-09-09T00:52:49.835Z,0.00
2017-09-09T00:53:49.858Z,0.00
2017-09-09T00:54:49.881Z,0.00
2017-09-09T00:55:49.907Z,0.00
2017-09-09T00:56:49.927Z,0.00
2017-09-09T00:57:49.956Z,0.00
2017-09-09T00:58:49.976Z,0.00
2017-09-09T00:59:50.003Z,0.00
2017-09-09T01:00:50.024Z,0.00
2017-09-09T01:01:50.050Z,0.00
2017-09-09T01:02:50.074Z,0.00
2017-09-09T01:03:50.096Z,0.00
2017-09-09T01:04:50.155Z,0.00
2017-09-09T01:05:50.146Z,0.00
2017-09-09T01:06:50.168Z,0.00
2017-09-09T01:07:50.194Z,0.00
2017-09-09T01:08:50.215Z,0.00
2017-09-09T01:09:50.242Z,0.00
2017-09-09T01:10:50.263Z,0.00
2017-09-09T01:11:50.290Z,0.00
2017-09-09T01:12:50.311Z,0.00
2017-09-09T01:13:50.337Z,0.00
2017-09-09T01:14:50.359Z,0.00
2017-09-09T01:15:50.385Z,0.00
2017-09-09T01:16:50.410Z,0.00
2017-09-09T01:17:50.431Z,0.00
2017-09-09T01:18:50.457Z,0.00
2017-09-09T01:19:50.478Z,0.00
2017-09-09T01:20:50.505Z,0.00
2017-09-09T01:21:50.529Z,0.00
2017-09-09T01:22:50.550Z,0.00
2017-09-09T01:23:50.577Z,0.00
2017-09-09T01:24:50.600Z,0.00
2017-09-09T01:25:50.622Z,0.00
2017-09-09T01:26:50.650Z,0.00
2017-09-09T01:27:50.673Z,0.00
2017-09-09T01:28:50.694Z,0.00
2017-09-09T01:29:50.718Z,0.00
2017-09-09T01:30:50.741Z,0.00
2017-09-09T01:31:50.768Z,0.00
2017-09-09T01:32:50.789Z,0.00
2017-09-09T01:33:50.817Z,0.00
2017-09-09T01:34:50.838Z,0.00
2017-09-09T01:35:50.861Z,0.00
2017-09-09T01:36:50.885Z,0.00
2017-09-09T01:37:50.908Z,0.00
2017-09-09T01:38:50.935Z,0.00
2017-09-09T01:39:50.960Z,0.00
2017-09-09T01:40:50.983Z,0.00
2017-09-09T01:41:51.007Z,0.00
2017-09-09T01:42:51.028Z,0.00
2017-09-09T01:43:51.052Z,0.00
2017-09-09T01:44:51.076Z,0.00
2017-09-09T01:45:51.099Z,0.00
2017-09-09T01:46:51.130Z,0.00
2017-09-09T01:47:51.149Z,0.00
2017-09-09T01:48:51.171Z,0.00
2017-09-09T01:49:51.195Z,0.00
2017-09-09T01:50:51.223Z,0.00
2017-09-09T01:51:51.246Z,0.00
2017-09-09T01:52:51.267Z,0.00
2017-09-09T01:53:51.292Z,0.00
2017-09-09T01:54:51.317Z,0.00
2017-09-09T01:55:51.341Z,0.00
2017-09-09T01:56:51.365Z,0.00
2017-09-09T01:57:51.387Z,0.00
2017-09-09T01:58:51.410Z,0.00
2017-09-09T01:59:51.438Z,0.00
2017-09-09T02:00:51.457Z,0.00
2017-09-09T02:01:51.482Z,0.00
2017-09-09T02:02:51.509Z,0.00
2017-09-09T02:03:51.534Z,0.00
2017-09-09T02:04:51.553Z,0.00
2017-09-09T02:05:51.581Z,0.00
2017-09-09T02:06:51.604Z,0.00
2017-09-09T02:07:51.630Z,0.00
2017-09-09T02:08:51.652Z,0.00
2017-09-09T02:09:51.675Z,0.00
2017-09-09T02:10:51.701Z,0.00
2017-09-09T02:11:51.723Z,0.00
2017-09-09T02:12:51.748Z,0.00
2017-09-09T02:13:51.773Z,0.00
2017-09-09T02:14:51.797Z,0.00
2017-09-09T02:15:51.820Z,0.00
2017-09-09T02:16:51.842Z,0.00
2017-09-09T02:17:51.868Z,0.00
2017-09-09T02:18:51.890Z,0.00
2017-09-09T02:19:51.916Z,0.00
2017-09-09T02:20:51.938Z,0.00
2017-09-09T02:21:51.963Z,0.00
2017-09-09T02:22:51.989Z,0.00
2017-09-09T02:23:52.013Z,0.00
2017-09-09T02:24:52.038Z,0.00
2017-09-09T02:25:52.061Z,0.00
2017-09-09T02:26:52.087Z,0.00
2017-09-09T02:27:52.110Z,0.00
2017-09-09T02:28:52.131Z,0.00
2017-09-09T02:29:52.157Z,0.00
2017-09-09T02:30:52.183Z,0.00
2017-09-09T02:31:52.206Z,0.00
2017-09-09T02:32:52.228Z,0.00
2017-09-09T02:33:52.254Z,0.00
2017-09-09T02:34:52.276Z,0.00
2017-09-09T02:35:52.304Z,0.00
2017-09-09T02:36:52.324Z,0.00
2017-09-09T02:37:52.350Z,0.00
2017-09-09T02:38:52.375Z,0.00
2017-09-09T02:39:52.423Z,0.00
2017-09-09T02:40:52.422Z,0.00
2017-09-09T02:41:52.445Z,0.00
2017-09-09T02:42:52.471Z,0.00
2017-09-09T02:43:52.495Z,0.00
2017-09-09T02:44:52.517Z,0.00
2017-09-09T02:45:52.547Z,0.00
2017-09-09T02:46:52.566Z,0.00
2017-09-09T02:47:52.591Z,0.00
2017-09-09T02:48:52.616Z,0.00
2017-09-09T02:49:52.640Z,0.00
2017-09-09T02:50:52.664Z,0.00
2017-09-09T02:51:52.687Z,0.00
2017-09-09T02:52:52.716Z,0.00
2017-09-09T02:53:52.737Z,0.00
2017-09-09T02:54:52.761Z,0.00
2017-09-09T02:55:52.786Z,0.00
2017-09-09T02:56:52.809Z,0.00
2017-09-09T02:57:52.832Z,0.00
2017-09-09T02:58:52.855Z,0.00
2017-09-09T02:59:52.881Z,0.00
2017-09-09T03:00:52.905Z,0.00
2017-09-09T03:01:52.934Z,0.00
2017-09-09T03:02:52.961Z,0.00
2017-09-09T03:03:52.979Z,0.00
2017-09-09T03:04:53.006Z,0.00
2017-09-09T03:05:53.025Z,0.00
2017-09-09T03:06:53.050Z,0.00
2017-09-09T03:07:53.074Z,0.00
2017-09-09T03:08:53.098Z,0.00
2017-09-09T03:09:53.125Z,0.00
2017-09-09T03:10:53.149Z,0.00
2017-09-09T03:11:53.170Z,0.00
2017-09-09T03:12:53.197Z,0.00
2017-09-09T03:13:53.221Z,0.00
2017-09-09T03:14:53.246Z,0.00
2017-09-09T03:15:53.270Z,0.00
2017-09-09T03:16:53.291Z,0.00
2017-09-09T03:17:53.316Z,0.00
2017-09-09T03:18:53.343Z,0.00
2017-09-09T03:19:53.366Z,0.00
2017-09-09T03:20:53.391Z,0.00
2017-09-09T03:21:53.413Z,0.00
2017-09-09T03:22:53.440Z,0.00
2017-09-09T03:23:53.465Z,0.00
2017-09-09T03:24:53.486Z,0.00
2017-09-09T03:25:53.514Z,0.00
2017-09-09T03:26:53.535Z,0.00
2017-09-09T03:27:53.562Z,0.00
2017-09-09T03:28:53.586Z,0.00
2017-09-09T03:29:53.607Z,0.00
2017-09-09T03:30:53.633Z,0.00
2017-09-09T03:31:53.659Z,0.00
2017-09-09T03:32:53.683Z,0.00
2017-09-09T03:33:53.706Z,0.00
2017-09-09T03:34:53.729Z,0.00
2017-09-09T03:35:53.753Z,0.00
2017-09-09T03:36:53.780Z,0.00
2017-09-09T03:37:53.802Z,0.00
2017-09-09T03:38:53.828Z,0.00
2017-09-09T03:39:53.852Z,0.00
2017-09-09T03:40:53.874Z,0.00
2017-09-09T03:41:53.897Z,0.00
2017-09-09T03:42:53.924Z,0.00
2017-09-09T03:43:53.946Z,0.00
2017-09-09T03:44:53.971Z,0.00
2017-09-09T03:45:53.996Z,0.00
2017-09-09T03:46:54.021Z,0.00
2017-09-09T03:47:54.045Z,0.00
2017-09-09T03:48:54.069Z,0.00
2017-09-09T03:49:54.094Z,0.00
2017-09-09T03:50:54.118Z,0.00
2017-09-09T03:51:54.142Z,0.00
2017-09-09T03:52:54.165Z,0.00
2017-09-09T03:53:54.191Z,0.00
2017-09-09T03:54:54.215Z,0.00
2017-09-09T03:55:54.238Z,0.00
2017-09-09T03:56:54.264Z,0.00
2017-09-09T03:57:54.286Z,0.00
2017-09-09T03:58:54.309Z,0.00
2017-09-09T03:59:54.336Z,0.00
2017-09-09T04:00:54.359Z,0.00
2017-09-09T04:01:54.383Z,0.00
2017-09-09T04:02:54.407Z,0.00
2017-09-09T04:03:54.433Z,0.00
2017-09-09T04:04:54.453Z,0.00
2017-09-09T04:05:54.481Z,0.00
2017-09-09T04:06:54.505Z,0.00
2017-09-09T04:07:54.526Z,0.00
2017-09-09T04:08:54.550Z,0.00
2017-09-09T04:09:54.574Z,0.00
2017-09-09T04:10:54.601Z,0.00
2017-09-09T04:11:54.625Z,0.00
2017-09-09T04:12:54.648Z,0.00
2017-09-09T04:13:54.673Z,4.00
2017-09-09T04:14:54.695Z,4.00
2017-09-09T04:15:54.719Z,0.00
2017-09-09T04:16:54.743Z,4.00
2017-09-09T04:17:54.770Z,4.00
2017-09-09T04:18:54.795Z,4.00
2017-09-09T04:19:54.818Z,8.00
2017-09-09T04:20:54.842Z,4.00
2017-09-09T04:21:54.898Z,8.00
2017-09-09T04:22:54.890Z,12.00
2017-09-09T04:23:54.915Z,12.00
2017-09-09T04:24:54.935Z,16.00
2017-09-09T04:25:54.960Z,16.00
2017-09-09T04:26:54.985Z,24.00
2017-09-09T04:27:55.012Z,28.00
2017-09-09T04:28:55.033Z,32.00
2017-09-09T04:29:55.060Z,36.00
2017-09-09T04:30:55.081Z,44.00
2017-09-09T04:31:55.105Z,52.00
2017-09-09T04:32:55.129Z,60.00
2017-09-09T04:33:55.153Z,68.00
2017-09-09T04:34:55.181Z,80.00
2017-09-09T04:35:55.202Z,92.00
2017-09-09T04:36:55.228Z,108.00
2017-09-09T04:37:55.252Z,124.00
2017-09-09T04:38:55.279Z,144.00
2017-09-09T04:39:55.299Z,160.00
2017-09-09T04:40:55.323Z,184.00
2017-09-09T04:41:55.346Z,200.00
2017-09-09T04:42:55.372Z,224.00
2017-09-09T04:43:55.396Z,244.00
2017-09-09T04:44:55.422Z,264.00
2017-09-09T04:45:55.447Z,292.00
2017-09-09T04:46:55.471Z,316.00
2017-09-09T04:47:55.496Z,352.00
2017-09-09T04:48:55.520Z,392.00
2017-09-09T04:49:55.542Z,432.00
2017-09-09T04:50:55.569Z,480.00
2017-09-09T04:51:55.592Z,528.00
2017-09-09T04:52:55.617Z,568.00
2017-09-09T04:53:55.640Z,608.00
2017-09-09T04:54:55.666Z,660.00
2017-09-09T04:55:55.688Z,724.00
2017-09-09T04:56:55.714Z,788.00
2017-09-09T04:57:55.740Z,860.00
2017-09-09T04:58:55.762Z,936.00
2017-09-09T04:59:55.788Z,1020.00
2017-09-09T05:00:55.813Z,1112.00
2017-09-09T05:01:55.835Z,1208.00
2017-09-09T05:02:55.862Z,1308.00
2017-09-09T05:03:55.887Z,1416.00
2017-09-09T05:04:55.911Z,1524.00
2017-09-09T05:05:55.936Z,1636.00
2017-09-09T05:06:55.958Z,1724.00
2017-09-09T05:07:55.986Z,1832.00
2017-09-09T05:08:56.011Z,1956.00
2017-09-09T05:09:56.034Z,2112.00
2017-09-09T05:10:56.058Z,2292.00
2017-09-09T05:11:56.081Z,2532.00
2017-09-09T05:12:56.108Z,2792.00
2017-09-09T05:13:56.130Z,3040.00
2017-09-09T05:14:56.155Z,3228.00
2017-09-09T05:15:56.180Z,3360.00
2017-09-09T05:16:56.207Z,3500.00
2017-09-09T05:17:56.233Z,3676.00
2017-09-09T05:18:56.261Z,3864.00
2017-09-09T05:19:56.282Z,4008.00
2017-09-09T05:20:56.315Z,4092.00
2017-09-09T05:21:56.332Z,4152.00
2017-09-09T05:22:56.359Z,4168.00
2017-09-09T05:23:56.384Z,4260.00
2017-09-09T05:24:56.406Z,4388.00
2017-09-09T05:25:56.434Z,4516.00
2017-09-09T05:26:56.457Z,4772.00
2017-09-09T05:27:56.483Z,5032.00
2017-09-09T05:28:56.506Z,5184.00
2017-09-09T05:29:56.533Z,5276.00
2017-09-09T05:30:56.559Z,5256.00
2017-09-09T05:31:56.584Z,5100.00
2017-09-09T05:32:56.612Z,5088.00
2017-09-09T05:33:56.636Z,5212.00
2017-09-09T05:34:56.663Z,5276.00
2017-09-09T05:35:56.689Z,5472.00
2017-09-09T05:36:56.717Z,6088.00
2017-09-09T05:37:56.739Z,6616.00
2017-09-09T05:38:56.764Z,6784.00
2017-09-09T05:39:56.792Z,7116.00
2017-09-09T05:40:56.815Z,7412.00
2017-09-09T05:41:56.841Z,7828.00
2017-09-09T05:42:56.869Z,7868.00
2017-09-09T05:43:56.897Z,7844.00
2017-09-09T05:44:56.919Z,8112.00
2017-09-09T05:45:56.948Z,8252.00
2017-09-09T05:46:56.975Z,8364.00
2017-09-09T05:47:57.000Z,8384.00
2017-09-09T05:48:57.026Z,8488.00
2017-09-09T05:49:57.053Z,9056.00
2017-09-09T05:50:57.081Z,9376.00
2017-09-09T05:51:57.104Z,9528.00
2017-09-09T05:52:57.132Z,9784.00
2017-09-09T05:53:57.159Z,9684.00
2017-09-09T05:54:57.185Z,10040.00
2017-09-09T05:55:57.211Z,10196.00
2017-09-09T05:56:57.239Z,10396.00
2017-09-09T05:57:57.265Z,10572.00
2017-09-09T05:58:57.294Z,10280.00
2017-09-09T05:59:57.321Z,10376.00
2017-09-09T06:00:57.348Z,9740.00
2017-09-09T06:01:57.373Z,10000.00
2017-09-09T06:02:57.400Z,10108.00
2017-09-09T06:03:57.431Z,10376.00
2017-09-09T06:04:57.457Z,12832.00
2017-09-09T06:05:57.482Z,14608.00
2017-09-09T06:06:57.512Z,14328.00
2017-09-09T06:07:57.540Z,14432.00
2017-09-09T06:08:57.590Z,15168.00
2017-09-09T06:09:57.593Z,15508.00
2017-09-09T06:10:57.620Z,15632.00
2017-09-09T06:11:57.650Z,18432.00
2017-09-09T06:12:57.675Z,17600.00
2017-09-09T06:13:57.708Z,19424.00
2017-09-09T06:14:57.731Z,21696.00
2017-09-09T06:15:57.760Z,22560.00
2017-09-09T06:16:57.785Z,23776.00
2017-09-09T06:17:57.814Z,23936.00
2017-09-09T06:18:57.844Z,24960.00
2017-09-09T06:19:57.873Z,26528.00
2017-09-09T06:20:57.897Z,23168.00
2017-09-09T06:21:57.926Z,22880.00
2017-09-09T06:22:57.953Z,23456.00
2017-09-09T06:23:57.983Z,22048.00
2017-09-09T06:24:58.041Z,22464.00
2017-09-09T06:25:58.042Z,22752.00
2017-09-09T06:26:58.072Z,22528.00
2017-09-09T06:27:58.098Z,19680.00
2017-09-09T06:28:58.128Z,18464.00
2017-09-09T06:29:58.154Z,17312.00
2017-09-09T06:30:58.186Z,15328.00
2017-09-09T06:31:58.213Z,14680.00
2017-09-09T06:32:58.242Z,14924.00
2017-09-09T06:33:58.274Z,14884.00
2017-09-09T06:34:58.302Z,14584.00
2017-09-09T06:35:58.331Z,14860.00
2017-09-09T06:36:58.358Z,14404.00
2017-09-09T06:37:58.385Z,14568.00
2017-09-09T06:38:58.421Z,16008.00
2017-09-09T06:39:58.445Z,16672.00
2017-09-09T06:40:58.472Z,16864.00
2017-09-09T06:41:58.504Z,17056.00
2017-09-09T06:42:58.531Z,17248.00
2017-09-09T06:43:58.558Z,16992.00
2017-09-09T06:44:58.585Z,15884.00
2017-09-09T06:45:58.613Z,15360.00
2017-09-09T06:46:58.643Z,15124.00
2017-09-09T06:47:58.672Z,14324.00
2017-09-09T06:48:58.696Z,13608.00
2017-09-09T06:49:58.729Z,13132.00
2017-09-09T06:50:58.756Z,12548.00
2017-09-09T06:51:58.786Z,12908.00
2017-09-09T06:52:58.810Z,12800.00
2017-09-09T06:53:58.840Z,12740.00
2017-09-09T06:54:58.866Z,12808.00
2017-09-09T06:55:58.894Z,12896.00
2017-09-09T06:56:58.924Z,13068.00
2017-09-09T06:57:58.950Z,13464.00
2017-09-09T06:58:59.010Z,13976.00
2017-09-09T06:59:59.007Z,14520.00
2017-09-09T07:00:59.031Z,14976.00
2017-09-09T07:01:59.059Z,15348.00
2017-09-09T07:02:59.089Z,15448.00
2017-09-09T07:03:59.118Z,15504.00
2017-09-09T07:04:59.143Z,15544.00
2017-09-09T07:05:59.170Z,15532.00
2017-09-09T07:06:59.197Z,15504.00
2017-09-09T07:07:59.225Z,15484.00
2017-09-09T07:08:59.255Z,15536.00
2017-09-09T07:09:59.278Z,15480.00
2017-09-09T07:10:59.308Z,15356.00
2017-09-09T07:11:59.334Z,15156.00
2017-09-09T07:12:59.361Z,14984.00
2017-09-09T07:13:59.388Z,14856.00
2017-09-09T07:14:59.416Z,14872.00
2017-09-09T07:15:59.444Z,15036.00
2017-09-09T07:16:59.478Z,15428.00
2017-09-09T07:17:59.501Z,15900.00
2017-09-09T07:18:59.531Z,16140.00
2017-09-09T07:19:59.557Z,16008.00
2017-09-09T07:20:59.583Z,15648.00
2017-09-09T07:21:59.611Z,15248.00
2017-09-09T07:22:59.639Z,14524.00
2017-09-09T07:23:59.671Z,14128.00
2017-09-09T07:24:59.691Z,13912.00
2017-09-09T07:25:59.719Z,14552.00
2017-09-09T07:26:59.749Z,15652.00
2017-09-09T07:27:59.776Z,17056.00
2017-09-09T07:28:59.804Z,18176.00
2017-09-09T07:29:59.830Z,18720.00
2017-09-09T07:30:59.861Z,17856.00
2017-09-09T07:31:59.886Z,16588.00
2017-09-09T07:32:59.911Z,15704.00
2017-09-09T07:33:59.940Z,15328.00
2017-09-09T07:34:59.971Z,15420.00
2017-09-09T07:36:00.000Z,15572.00
2017-09-09T07:37:00.023Z,15612.00
2017-09-09T07:38:00.051Z,15468.00
2017-09-09T07:39:00.079Z,14988.00
2017-09-09T07:40:00.106Z,14188.00
2017-09-09T07:41:00.133Z,13284.00
2017-09-09T07:42:00.164Z,12304.00
2017-09-09T07:43:00.189Z,11628.00
2017-09-09T07:44:00.217Z,12336.00
2017-09-09T07:45:00.246Z,13800.00
2017-09-09T07:46:00.272Z,15512.00
2017-09-09T07:47:00.301Z,16332.00
2017-09-09T07:48:00.329Z,17052.00
2017-09-09T07:49:00.353Z,19776.00
2017-09-09T07:50:00.381Z,21120.00
2017-09-09T07:51:00.409Z,21760.00
2017-09-09T07:52:00.438Z,23584.00
2017-09-09T07:53:00.467Z,24064.00
2017-09-09T07:54:00.491Z,21440.00
2017-09-09T07:55:00.522Z,23296.00
2017-09-09T07:56:00.547Z,23872.00
2017-09-09T07:57:00.578Z,27168.00
2017-09-09T07:58:00.630Z,33952.00
2017-09-09T07:59:00.634Z,37440.00
2017-09-09T08:00:00.668Z,33664.00
2017-09-09T08:01:00.691Z,31968.00
2017-09-09T08:02:00.720Z,41248.00
2017-09-09T08:03:00.749Z,38144.00
2017-09-09T08:04:00.776Z,35968.00
2017-09-09T08:05:00.807Z,35616.00
2017-09-09T08:06:00.835Z,38144.00
2017-09-09T08:07:00.865Z,46752.00
2017-09-09T08:08:00.896Z,48832.00
2017-09-09T08:09:00.928Z,50272.00
2017-09-09T08:10:00.957Z,20992.00
2017-09-09T08:11:00.988Z,20896.00
2017-09-09T08:12:01.021Z,22688.00
2017-09-09T08:13:01.052Z,26944.00
2017-09-09T08:14:01.082Z,30112.00
2017-09-09T08:15:01.114Z,33184.00
2017-09-09T08:16:01.147Z,34816.00
2017-09-09T08:17:01.207Z,33472.00
2017-09-09T08:18:01.208Z,32608.00
2017-09-09T08:19:01.237Z,31904.00
2017-09-09T08:20:01.272Z,30784.00
2017-09-09T08:21:01.299Z,32416.00
2017-09-09T08:22:01.334Z,34528.00
2017-09-09T08:23:01.365Z,36576.00
2017-09-09T08:24:01.397Z,37280.00
2017-09-09T08:25:01.429Z,35392.00
2017-09-09T08:26:01.458Z,32832.00
2017-09-09T08:27:01.492Z,29440.00
2017-09-09T08:28:01.525Z,26304.00
2017-09-09T08:29:01.553Z,24320.00
2017-09-09T08:30:01.592Z,22944.00
2017-09-09T08:31:01.615Z,23840.00
2017-09-09T08:32:01.651Z,25760.00
2017-09-09T08:33:01.680Z,26048.00
2017-09-09T08:34:01.713Z,26016.00
2017-09-09T08:35:01.747Z,27648.00
2017-09-09T08:36:01.773Z,28608.00
2017-09-09T08:37:01.805Z,24800.00
2017-09-09T08:38:01.838Z,22144.00
2017-09-09T08:39:01.873Z,20352.00
2017-09-09T08:40:01.902Z,17984.00
2017-09-09T08:41:01.931Z,17280.00
2017-09-09T08:42:01.963Z,16628.00
2017-09-09T08:43:01.993Z,14492.00
2017-09-09T08:44:02.025Z,10624.00
2017-09-09T08:45:02.055Z,11184.00
2017-09-09T08:46:02.089Z,18880.00
2017-09-09T08:47:02.116Z,25792.00
2017-09-09T08:48:02.147Z,26176.00
2017-09-09T08:49:02.177Z,28640.00
2017-09-09T08:50:02.208Z,29920.00
2017-09-09T08:51:02.241Z,30656.00
2017-09-09T08:52:02.270Z,27552.00
2017-09-09T08:53:02.299Z,24032.00
2017-09-09T08:54:02.333Z,20384.00
2017-09-09T08:55:02.364Z,20448.00
2017-09-09T08:56:02.391Z,24256.00
2017-09-09T08:57:02.424Z,28480.00
2017-09-09T08:58:02.451Z,29216.00
2017-09-09T08:59:02.484Z,21984.00
2017-09-09T09:00:02.516Z,15940.00
2017-09-09T09:01:02.544Z,9964.00
2017-09-09T09:02:02.576Z,8388.00
2017-09-09T09:03:02.605Z,10576.00
2017-09-09T09:04:02.634Z,12176.00
2017-09-09T09:05:02.671Z,12324.00
2017-09-09T09:06:02.695Z,12568.00
2017-09-09T09:07:02.722Z,13748.00
2017-09-09T09:08:02.755Z,14324.00
2017-09-09T09:09:02.780Z,15780.00
2017-09-09T09:10:02.810Z,22240.00
2017-09-09T09:11:02.842Z,19776.00
2017-09-09T09:12:02.871Z,14248.00
2017-09-09T09:13:02.900Z,14000.00
2017-09-09T09:14:02.929Z,10716.00
2017-09-09T09:15:02.958Z,11036.00
2017-09-09T09:16:02.987Z,13048.00
2017-09-09T09:17:03.016Z,14852.00
2017-09-09T09:18:03.045Z,18624.00
2017-09-09T09:19:03.074Z,17184.00
2017-09-09T09:20:03.102Z,11876.00
2017-09-09T09:21:03.130Z,12316.00
2017-09-09T09:22:03.160Z,10760.00
2017-09-09T09:23:03.187Z,12440.00
2017-09-09T09:24:03.216Z,14108.00
2017-09-09T09:25:03.246Z,10504.00
2017-09-09T09:26:03.274Z,10940.00
2017-09-09T09:27:03.305Z,12692.00
2017-09-09T09:28:03.333Z,10600.00
2017-09-09T09:29:03.358Z,9912.00
2017-09-09T09:30:03.389Z,11504.00
2017-09-09T09:31:03.419Z,11944.00
2017-09-09T09:32:03.450Z,11384.00
2017-09-09T09:33:03.472Z,10008.00
2017-09-09T09:34:03.502Z,11056.00
2017-09-09T09:35:03.530Z,12616.00
2017-09-09T09:36:03.560Z,11136.00
2017-09-09T09:37:03.587Z,8984.00
2017-09-09T09:38:03.612Z,5816.00
2017-09-09T09:39:03.643Z,5820.00
2017-09-09T09:40:03.669Z,6820.00
2017-09-09T09:41:03.698Z,8120.00
2017-09-09T09:42:03.726Z,8252.00
2017-09-09T09:43:03.754Z,7420.00
2017-09-09T09:44:03.779Z,7456.00
2017-09-09T09:45:03.810Z,5264.00
2017-09-09T09:46:03.837Z,5980.00
2017-09-09T09:47:03.864Z,7396.00
2017-09-09T09:48:03.889Z,6976.00
2017-09-09T09:49:03.918Z,6924.00
2017-09-09T09:50:03.943Z,6992.00
2017-09-09T09:51:03.973Z,9208.00
2017-09-09T09:52:03.997Z,9116.00
2017-09-09T09:53:04.064Z,7820.00
2017-09-09T09:54:04.054Z,8684.00
2017-09-09T09:55:04.078Z,9600.00
2017-09-09T09:56:04.106Z,9000.00
2017-09-09T09:57:04.133Z,9440.00
2017-09-09T09:58:04.158Z,7280.00
2017-09-09T09:59:04.189Z,5972.00
2017-09-09T10:00:04.215Z,6268.00
2017-09-09T10:01:04.241Z,6784.00
2017-09-09T10:02:04.267Z,7516.00
2017-09-09T10:03:04.294Z,7964.00
2017-09-09T10:04:04.319Z,9560.00
2017-09-09T10:05:04.344Z,10212.00
2017-09-09T10:06:04.373Z,9444.00
2017-09-09T10:07:04.397Z,10172.00
2017-09-09T10:08:04.423Z,11020.00
2017-09-09T10:09:04.484Z,10956.00
2017-09-09T10:10:04.477Z,8508.00
2017-09-09T10:11:04.502Z,7656.00
2017-09-09T10:12:04.532Z,8160.00
2017-09-09T10:13:04.556Z,8408.00
2017-09-09T10:14:04.584Z,7256.00
2017-09-09T10:15:04.608Z,6644.00
2017-09-09T10:16:04.634Z,6544.00
2017-09-09T10:17:04.662Z,6760.00
2017-09-09T10:18:04.690Z,8084.00
2017-09-09T10:19:04.715Z,9572.00
2017-09-09T10:20:04.741Z,10660.00
2017-09-09T10:21:04.767Z,14112.00
2017-09-09T10:22:04.794Z,13416.00
2017-09-09T10:23:04.819Z,11228.00
2017-09-09T10:24:04.846Z,11348.00
2017-09-09T10:25:04.872Z,10476.00
2017-09-09T10:26:04.896Z,8532.00
2017-09-09T10:27:04.931Z,7044.00
2017-09-09T10:28:04.956Z,6468.00
2017-09-09T10:29:04.977Z,6676.00
2017-09-09T10:30:05.009Z,7052.00
2017-09-09T10:31:05.027Z,7148.00
2017-09-09T10:32:05.056Z,7328.00
2017-09-09T10:33:05.082Z,9720.00
2017-09-09T10:34:05.109Z,10792.00
2017-09-09T10:35:05.132Z,10820.00
2017-09-09T10:36:05.158Z,7820.00
2017-09-09T10:37:05.186Z,7500.00
2017-09-09T10:38:05.211Z,6996.00
2017-09-09T10:39:05.240Z,6472.00
2017-09-09T10:40:05.266Z,5660.00
2017-09-09T10:41:05.291Z,6056.00
2017-09-09T10:42:05.317Z,6592.00
2017-09-09T10:43:05.343Z,6208.00
2017-09-09T10:44:05.371Z,7412.00
2017-09-09T10:45:05.396Z,8636.00
2017-09-09T10:46:05.420Z,8336.00
2017-09-09T10:47:05.446Z,6816.00
2017-09-09T10:48:05.473Z,6204.00
2017-09-09T10:49:05.498Z,6016.00
2017-09-09T10:50:05.530Z,5628.00
2017-09-09T10:51:05.553Z,7376.00
2017-09-09T10:52:05.577Z,9848.00
2017-09-09T10:53:05.604Z,10460.00
2017-09-09T10:54:05.630Z,10320.00
2017-09-09T10:55:05.657Z,7844.00
2017-09-09T10:56:05.680Z,6392.00
2017-09-09T10:57:05.708Z,6440.00
2017-09-09T10:58:05.731Z,7304.00
2017-09-09T10:59:05.757Z,7280.00
2017-09-09T11:00:05.785Z,7896.00
2017-09-09T11:01:05.809Z,8172.00
2017-09-09T11:02:05.835Z,7756.00
2017-09-09T11:03:05.863Z,6728.00
2017-09-09T11:04:05.886Z,6244.00
2017-09-09T11:05:05.911Z,6600.00
2017-09-09T11:06:05.939Z,8248.00
2017-09-09T11:07:05.966Z,9524.00
2017-09-09T11:08:05.992Z,8916.00
2017-09-09T11:09:06.015Z,5948.00
2017-09-09T11:10:06.042Z,5164.00
2017-09-09T11:11:06.067Z,7140.00
2017-09-09T11:12:06.091Z,12548.00
2017-09-09T11:13:06.124Z,11156.00
2017-09-09T11:14:06.146Z,11716.00
2017-09-09T11:15:06.171Z,17184.00
2017-09-09T11:16:06.197Z,13624.00
2017-09-09T11:17:06.220Z,12856.00
2017-09-09T11:18:06.248Z,14120.00
2017-09-09T11:19:06.274Z,11668.00
2017-09-09T11:20:06.296Z,12812.00
2017-09-09T11:21:06.321Z,13380.00
2017-09-09T11:22:06.351Z,12856.00
2017-09-09T11:23:06.376Z,12352.00
2017-09-09T11:24:06.401Z,11792.00
2017-09-09T11:25:06.429Z,11212.00
2017-09-09T11:26:06.455Z,11740.00
2017-09-09T11:27:06.478Z,12640.00
2017-09-09T11:28:06.507Z,12704.00
2017-09-09T11:29:06.532Z,11092.00
2017-09-09T11:30:06.556Z,9644.00
2017-09-09T11:31:06.586Z,9192.00
2017-09-09T11:32:06.610Z,11008.00
2017-09-09T11:33:06.636Z,10920.00
2017-09-09T11:34:06.662Z,8880.00
2017-09-09T11:35:06.686Z,7656.00
2017-09-09T11:36:06.714Z,8660.00
2017-09-09T11:37:06.736Z,9092.00
2017-09-09T11:38:06.763Z,8192.00
2017-09-09T11:39:06.792Z,8196.00
2017-09-09T11:40:06.814Z,7540.00
2017-09-09T11:41:06.842Z,6876.00
2017-09-09T11:42:06.869Z,7444.00
2017-09-09T11:43:06.891Z,7752.00
2017-09-09T11:44:06.918Z,7012.00
2017-09-09T11:45:06.946Z,6436.00
2017-09-09T11:46:06.969Z,6712.00
2017-09-09T11:47:06.995Z,7364.00
2017-09-09T11:48:07.024Z,7176.00
2017-09-09T11:49:07.044Z,7536.00
2017-09-09T11:50:07.072Z,7996.00
2017-09-09T11:51:07.099Z,7156.00
2017-09-09T11:52:07.125Z,8400.00
2017-09-09T11:53:07.148Z,6356.00
2017-09-09T11:54:07.175Z,4680.00
2017-09-09T11:55:07.200Z,5556.00
2017-09-09T11:56:07.227Z,7036.00
2017-09-09T11:57:07.250Z,7504.00
2017-09-09T11:58:07.276Z,7536.00
2017-09-09T11:59:07.303Z,11512.00
2017-09-09T12:00:07.329Z,10796.00
2017-09-09T12:01:07.350Z,9352.00
2017-09-09T12:02:07.378Z,8328.00
2017-09-09T12:03:07.406Z,7236.00
2017-09-09T12:04:07.431Z,7808.00
2017-09-09T12:05:07.452Z,8920.00
2017-09-09T12:06:07.515Z,9024.00
2017-09-09T12:07:07.507Z,8704.00
2017-09-09T12:08:07.531Z,6944.00
2017-09-09T12:09:07.554Z,6724.00
2017-09-09T12:10:07.580Z,6932.00
2017-09-09T12:11:07.609Z,7640.00
2017-09-09T12:12:07.632Z,8772.00
2017-09-09T12:13:07.660Z,8308.00
2017-09-09T12:14:07.682Z,10796.00
2017-09-09T12:15:07.710Z,13300.00
2017-09-09T12:16:07.732Z,12332.00
2017-09-09T12:17:07.761Z,10440.00
2017-09-09T12:18:07.787Z,10836.00
2017-09-09T12:19:07.812Z,9876.00
2017-09-09T12:20:07.838Z,7708.00
2017-09-09T12:21:07.861Z,6336.00
2017-09-09T12:22:07.889Z,5328.00
2017-09-09T12:23:07.912Z,5760.00
2017-09-09T12:24:07.941Z,7232.00